sensor_id;sensor_type;location;lat;lon;timestamp;temperature;humidity
6738;DHT22;3406;49.902;8.596;2023-02-28T00:00:48;0.60;54.40
6738;DHT22;3406;49.902;8.596;2023-02-28T00:03:15;0.60;54.50
6738;DHT22;3406;49.902;8.596;2023-02-28T00:05:42;0.60;54.70
6738;DHT22;3406;49.902;8.596;2023-02-28T00:08:09;0.50;54.70
6738;DHT22;3406;49.902;8.596;2023-02-28T00:10:36;0.50;54.80
6738;DHT22;3406;49.902;8.596;2023-02-28T00:13:05;0.50;54.90
6738;DHT22;3406;49.902;8.596;2023-02-28T00:15:32;0.50;55.10
6738;DHT22;3406;49.902;8.596;2023-02-28T00:17:59;0.50;55.10
6738;DHT22;3406;49.902;8.596;2023-02-28T00:20:25;0.50;55.20
6738;DHT22;3406;49.902;8.596;2023-02-28T00:22:53;0.50;55.30
6738;DHT22;3406;49.902;8.596;2023-02-28T00:25:22;0.40;55.30
6738;DHT22;3406;49.902;8.596;2023-02-28T00:27:50;0.40;55.40
6738;DHT22;3406;49.902;8.596;2023-02-28T00:30:19;0.40;55.40
6738;DHT22;3406;49.902;8.596;2023-02-28T00:32:46;0.40;55.50
6738;DHT22;3406;49.902;8.596;2023-02-28T00:35:13;0.40;55.50
6738;DHT22;3406;49.902;8.596;2023-02-28T00:37:40;0.40;55.60
6738;DHT22;3406;49.902;8.596;2023-02-28T00:40:08;0.40;55.60
6738;DHT22;3406;49.902;8.596;2023-02-28T00:42:36;0.40;55.70
6738;DHT22;3406;49.902;8.596;2023-02-28T00:45:04;0.40;55.70
6738;DHT22;3406;49.902;8.596;2023-02-28T00:47:32;0.40;55.80
6738;DHT22;3406;49.902;8.596;2023-02-28T00:49:59;0.30;55.70
6738;DHT22;3406;49.902;8.596;2023-02-28T00:52:26;0.30;55.80
6738;DHT22;3406;49.902;8.596;2023-02-28T00:54:53;0.30;55.90
6738;DHT22;3406;49.902;8.596;2023-02-28T00:57:19;0.30;56.00
6738;DHT22;3406;49.902;8.596;2023-02-28T00:59:46;0.30;56.10
6738;DHT22;3406;49.902;8.596;2023-02-28T01:02:13;0.30;56.10
6738;DHT22;3406;49.902;8.596;2023-02-28T01:04:41;0.30;56.20
6738;DHT22;3406;49.902;8.596;2023-02-28T01:07:07;0.30;56.80
6738;DHT22;3406;49.902;8.596;2023-02-28T01:09:34;0.30;56.30
6738;DHT22;3406;49.902;8.596;2023-02-28T01:12:01;0.20;56.40
6738;DHT22;3406;49.902;8.596;2023-02-28T01:14:27;0.20;56.50
6738;DHT22;3406;49.902;8.596;2023-02-28T01:16:54;0.20;56.60
6738;DHT22;3406;49.902;8.596;2023-02-28T01:19:21;0.20;56.70
6738;DHT22;3406;49.902;8.596;2023-02-28T01:21:49;0.20;56.80
6738;DHT22;3406;49.902;8.596;2023-02-28T01:24:15;0.20;56.90
6738;DHT22;3406;49.902;8.596;2023-02-28T01:26:42;0.20;57.00
6738;DHT22;3406;49.902;8.596;2023-02-28T01:29:09;0.20;57.10
6738;DHT22;3406;49.902;8.596;2023-02-28T01:31:35;0.20;57.10
6738;DHT22;3406;49.902;8.596;2023-02-28T01:34:03;0.20;57.10
6738;DHT22;3406;49.902;8.596;2023-02-28T01:36:29;0.20;57.20
6738;DHT22;3406;49.902;8.596;2023-02-28T01:38:58;0.20;57.20
6738;DHT22;3406;49.902;8.596;2023-02-28T01:41:26;0.20;57.30
6738;DHT22;3406;49.902;8.596;2023-02-28T01:43:59;0.20;57.40
6738;DHT22;3406;49.902;8.596;2023-02-28T01:46:28;0.20;57.50
6738;DHT22;3406;49.902;8.596;2023-02-28T01:49:00;0.20;57.50
6738;DHT22;3406;49.902;8.596;2023-02-28T01:51:30;0.20;57.60
6738;DHT22;3406;49.902;8.596;2023-02-28T01:54:02;0.20;57.70
6738;DHT22;3406;49.902;8.596;2023-02-28T01:56:33;0.20;57.80
6738;DHT22;3406;49.902;8.596;2023-02-28T01:59:02;0.10;57.90
6738;DHT22;3406;49.902;8.596;2023-02-28T02:01:30;0.10;58.50
6738;DHT22;3406;49.902;8.596;2023-02-28T02:04:01;0.20;58.10
6738;DHT22;3406;49.902;8.596;2023-02-28T02:06:31;0.10;58.10
6738;DHT22;3406;49.902;8.596;2023-02-28T02:09:00;0.10;58.10
6738;DHT22;3406;49.902;8.596;2023-02-28T02:11:28;0.20;58.20
6738;DHT22;3406;49.902;8.596;2023-02-28T02:14:21;0.20;58.30
6738;DHT22;3406;49.902;8.596;2023-02-28T02:17:03;0.10;58.30
6738;DHT22;3406;49.902;8.596;2023-02-28T02:19:51;0.20;58.40
6738;DHT22;3406;49.902;8.596;2023-02-28T02:25:17;0.10;58.40
6738;DHT22;3406;49.902;8.596;2023-02-28T02:28:13;0.10;58.40
6738;DHT22;3406;49.902;8.596;2023-02-28T02:31:10;0.10;58.50
6738;DHT22;3406;49.902;8.596;2023-02-28T02:34:10;0.00;58.50
6738;DHT22;3406;49.902;8.596;2023-02-28T02:36:48;0.00;58.60
6738;DHT22;3406;49.902;8.596;2023-02-28T02:39:22;0.00;58.70
6738;DHT22;3406;49.902;8.596;2023-02-28T02:41:54;0.00;58.70
6738;DHT22;3406;49.902;8.596;2023-02-28T02:47:45;-0.10;58.80
6738;DHT22;3406;49.902;8.596;2023-02-28T02:50:19;-0.10;58.90
6738;DHT22;3406;49.902;8.596;2023-02-28T02:52:51;-0.10;58.90
6738;DHT22;3406;49.902;8.596;2023-02-28T02:55:20;-0.10;59.00
6738;DHT22;3406;49.902;8.596;2023-02-28T02:57:52;-0.10;59.10
6738;DHT22;3406;49.902;8.596;2023-02-28T03:00:23;-0.10;59.10
6738;DHT22;3406;49.902;8.596;2023-02-28T03:02:52;-0.10;59.20
6738;DHT22;3406;49.902;8.596;2023-02-28T03:05:26;-0.20;59.20
6738;DHT22;3406;49.902;8.596;2023-02-28T03:07:53;-0.20;59.30
6738;DHT22;3406;49.902;8.596;2023-02-28T03:10:31;-0.20;59.30
6738;DHT22;3406;49.902;8.596;2023-02-28T03:13:07;-0.10;59.40
6738;DHT22;3406;49.902;8.596;2023-02-28T03:15:46;-0.20;59.40
6738;DHT22;3406;49.902;8.596;2023-02-28T03:18:21;-0.20;60.00
6738;DHT22;3406;49.902;8.596;2023-02-28T03:20:59;-0.20;59.50
6738;DHT22;3406;49.902;8.596;2023-02-28T03:23:34;-0.20;59.50
6738;DHT22;3406;49.902;8.596;2023-02-28T03:26:04;-0.30;59.50
6738;DHT22;3406;49.902;8.596;2023-02-28T03:28:37;-0.30;59.60
6738;DHT22;3406;49.902;8.596;2023-02-28T03:31:12;-0.30;59.70
6738;DHT22;3406;49.902;8.596;2023-02-28T03:33:44;-0.30;59.80
6738;DHT22;3406;49.902;8.596;2023-02-28T03:36:24;-0.30;59.90
6738;DHT22;3406;49.902;8.596;2023-02-28T03:38:56;-0.30;60.00
6738;DHT22;3406;49.902;8.596;2023-02-28T03:41:27;-0.40;60.00
6738;DHT22;3406;49.902;8.596;2023-02-28T03:44:05;-0.40;60.10
6738;DHT22;3406;49.902;8.596;2023-02-28T03:46:37;-0.40;60.20
6738;DHT22;3406;49.902;8.596;2023-02-28T03:49:08;-0.40;60.30
6738;DHT22;3406;49.902;8.596;2023-02-28T03:51:40;-0.40;60.40
6738;DHT22;3406;49.902;8.596;2023-02-28T03:54:11;-0.40;60.50
6738;DHT22;3406;49.902;8.596;2023-02-28T03:56:45;-0.40;60.60
6738;DHT22;3406;49.902;8.596;2023-02-28T03:59:17;-0.40;60.60
6738;DHT22;3406;49.902;8.596;2023-02-28T04:01:47;-0.50;60.60
6738;DHT22;3406;49.902;8.596;2023-02-28T04:04:15;-0.40;60.80
6738;DHT22;3406;49.902;8.596;2023-02-28T04:06:44;-0.50;60.70
6738;DHT22;3406;49.902;8.596;2023-02-28T04:09:13;-0.50;60.80
6738;DHT22;3406;49.902;8.596;2023-02-28T04:11:42;-0.50;60.90
6738;DHT22;3406;49.902;8.596;2023-02-28T04:14:11;-0.50;61.00
6738;DHT22;3406;49.902;8.596;2023-02-28T04:16:40;-0.50;61.10
6738;DHT22;3406;49.902;8.596;2023-02-28T04:19:08;-0.50;61.20
6738;DHT22;3406;49.902;8.596;2023-02-28T04:21:37;-0.50;61.30
6738;DHT22;3406;49.902;8.596;2023-02-28T04:24:07;-0.60;61.20
6738;DHT22;3406;49.902;8.596;2023-02-28T04:26:36;-0.50;61.50
6738;DHT22;3406;49.902;8.596;2023-02-28T04:29:04;-0.50;61.60
6738;DHT22;3406;49.902;8.596;2023-02-28T04:31:31;-0.50;61.60
6738;DHT22;3406;49.902;8.596;2023-02-28T04:33:58;-0.50;61.60
6738;DHT22;3406;49.902;8.596;2023-02-28T04:36:25;-0.40;61.60
6738;DHT22;3406;49.902;8.596;2023-02-28T04:38:52;-0.40;61.60
6738;DHT22;3406;49.902;8.596;2023-02-28T04:41:21;-0.40;61.60
6738;DHT22;3406;49.902;8.596;2023-02-28T04:43:48;-0.40;61.60
6738;DHT22;3406;49.902;8.596;2023-02-28T04:46:14;-0.40;61.50
6738;DHT22;3406;49.902;8.596;2023-02-28T04:48:41;-0.40;61.50
6738;DHT22;3406;49.902;8.596;2023-02-28T04:51:11;-0.40;61.50
6738;DHT22;3406;49.902;8.596;2023-02-28T04:53:40;-0.40;61.60
6738;DHT22;3406;49.902;8.596;2023-02-28T04:56:11;-0.30;61.80
6738;DHT22;3406;49.902;8.596;2023-02-28T04:58:40;-0.30;61.80
6738;DHT22;3406;49.902;8.596;2023-02-28T05:01:14;-0.30;61.80
6738;DHT22;3406;49.902;8.596;2023-02-28T05:03:42;-0.30;61.90
6738;DHT22;3406;49.902;8.596;2023-02-28T05:06:10;-0.30;62.00
6738;DHT22;3406;49.902;8.596;2023-02-28T05:08:37;-0.30;62.00
6738;DHT22;3406;49.902;8.596;2023-02-28T05:11:06;-0.30;62.10
6738;DHT22;3406;49.902;8.596;2023-02-28T05:13:34;-0.40;62.00
6738;DHT22;3406;49.902;8.596;2023-02-28T05:16:02;-0.40;62.10
6738;DHT22;3406;49.902;8.596;2023-02-28T05:18:29;-0.30;62.30
6738;DHT22;3406;49.902;8.596;2023-02-28T05:20:55;-0.40;62.20
6738;DHT22;3406;49.902;8.596;2023-02-28T05:23:22;-0.30;62.30
6738;DHT22;3406;49.902;8.596;2023-02-28T05:25:49;-0.40;62.40
6738;DHT22;3406;49.902;8.596;2023-02-28T05:28:17;-0.40;63.00
6738;DHT22;3406;49.902;8.596;2023-02-28T05:30:44;-0.40;62.40
6738;DHT22;3406;49.902;8.596;2023-02-28T05:33:12;-0.40;62.40
6738;DHT22;3406;49.902;8.596;2023-02-28T05:35:40;-0.40;62.40
6738;DHT22;3406;49.902;8.596;2023-02-28T05:38:08;-0.40;62.50
6738;DHT22;3406;49.902;8.596;2023-02-28T05:40:35;-0.40;62.50
6738;DHT22;3406;49.902;8.596;2023-02-28T05:43:04;-0.40;62.60
6738;DHT22;3406;49.902;8.596;2023-02-28T05:45:30;-0.40;62.60
6738;DHT22;3406;49.902;8.596;2023-02-28T05:47:57;-0.40;62.60
6738;DHT22;3406;49.902;8.596;2023-02-28T05:50:25;-0.40;62.60
6738;DHT22;3406;49.902;8.596;2023-02-28T05:52:52;-0.40;62.70
6738;DHT22;3406;49.902;8.596;2023-02-28T05:55:19;-0.40;63.30
6738;DHT22;3406;49.902;8.596;2023-02-28T05:57:46;-0.40;63.40
6738;DHT22;3406;49.902;8.596;2023-02-28T06:00:13;-0.40;62.60
6738;DHT22;3406;49.902;8.596;2023-02-28T06:02:43;-0.40;62.70
6738;DHT22;3406;49.902;8.596;2023-02-28T06:05:13;-0.40;62.70
6738;DHT22;3406;49.902;8.596;2023-02-28T06:07:41;-0.40;62.70
6738;DHT22;3406;49.902;8.596;2023-02-28T06:10:08;-0.40;62.60
6738;DHT22;3406;49.902;8.596;2023-02-28T06:12:35;-0.40;62.60
6738;DHT22;3406;49.902;8.596;2023-02-28T06:15:03;-0.50;62.60
6738;DHT22;3406;49.902;8.596;2023-02-28T06:17:30;-0.50;62.60
6738;DHT22;3406;49.902;8.596;2023-02-28T06:19:56;-0.50;62.50
6738;DHT22;3406;49.902;8.596;2023-02-28T06:22:23;-0.50;62.50
6738;DHT22;3406;49.902;8.596;2023-02-28T06:24:51;-0.50;62.60
6738;DHT22;3406;49.902;8.596;2023-02-28T06:27:20;-0.50;62.70
6738;DHT22;3406;49.902;8.596;2023-02-28T06:29:47;-0.50;62.70
6738;DHT22;3406;49.902;8.596;2023-02-28T06:32:14;-0.50;62.70
6738;DHT22;3406;49.902;8.596;2023-02-28T06:34:41;-0.50;62.70
6738;DHT22;3406;49.902;8.596;2023-02-28T06:37:07;-0.50;62.60
6738;DHT22;3406;49.902;8.596;2023-02-28T06:39:34;-0.50;62.70
6738;DHT22;3406;49.902;8.596;2023-02-28T06:42:02;-0.50;62.80
6738;DHT22;3406;49.902;8.596;2023-02-28T06:44:29;-0.50;62.80
6738;DHT22;3406;49.902;8.596;2023-02-28T06:47:00;-0.50;62.80
6738;DHT22;3406;49.902;8.596;2023-02-28T06:49:28;-0.40;62.90
6738;DHT22;3406;49.902;8.596;2023-02-28T06:51:55;-0.40;62.90
6738;DHT22;3406;49.902;8.596;2023-02-28T06:54:22;-0.40;62.80
6738;DHT22;3406;49.902;8.596;2023-02-28T06:56:48;-0.30;62.80
6738;DHT22;3406;49.902;8.596;2023-02-28T06:59:17;-0.30;62.70
6738;DHT22;3406;49.902;8.596;2023-02-28T07:01:43;-0.30;62.70
6738;DHT22;3406;49.902;8.596;2023-02-28T07:04:10;-0.20;62.70
6738;DHT22;3406;49.902;8.596;2023-02-28T07:06:38;-0.20;62.70
6738;DHT22;3406;49.902;8.596;2023-02-28T07:09:05;-0.20;62.60
6738;DHT22;3406;49.902;8.596;2023-02-28T07:11:32;-0.20;62.60
6738;DHT22;3406;49.902;8.596;2023-02-28T07:13:59;-0.10;62.60
6738;DHT22;3406;49.902;8.596;2023-02-28T07:16:27;-0.10;62.60
6738;DHT22;3406;49.902;8.596;2023-02-28T07:18:54;-0.10;62.60
6738;DHT22;3406;49.902;8.596;2023-02-28T07:21:21;-0.10;62.60
6738;DHT22;3406;49.902;8.596;2023-02-28T07:23:48;0.00;62.60
6738;DHT22;3406;49.902;8.596;2023-02-28T07:26:16;0.10;62.80
6738;DHT22;3406;49.902;8.596;2023-02-28T07:28:44;0.10;62.60
6738;DHT22;3406;49.902;8.596;2023-02-28T07:31:12;0.20;62.50
6738;DHT22;3406;49.902;8.596;2023-02-28T07:33:41;0.30;62.40
6738;DHT22;3406;49.902;8.596;2023-02-28T07:36:10;0.30;62.40
6738;DHT22;3406;49.902;8.596;2023-02-28T07:38:41;0.30;62.30
6738;DHT22;3406;49.902;8.596;2023-02-28T07:41:07;0.40;62.30
6738;DHT22;3406;49.902;8.596;2023-02-28T07:43:35;0.40;62.30
6738;DHT22;3406;49.902;8.596;2023-02-28T07:46:03;0.50;62.30
6738;DHT22;3406;49.902;8.596;2023-02-28T07:48:30;0.60;62.30
6738;DHT22;3406;49.902;8.596;2023-02-28T07:50:59;0.60;62.00
6738;DHT22;3406;49.902;8.596;2023-02-28T07:53:26;0.70;62.00
6738;DHT22;3406;49.902;8.596;2023-02-28T07:55:55;0.80;61.90
6738;DHT22;3406;49.902;8.596;2023-02-28T07:58:22;0.80;61.70
6738;DHT22;3406;49.902;8.596;2023-02-28T08:00:49;0.90;61.60
6738;DHT22;3406;49.902;8.596;2023-02-28T08:03:16;1.00;61.50
6738;DHT22;3406;49.902;8.596;2023-02-28T08:05:43;1.10;61.40
6738;DHT22;3406;49.902;8.596;2023-02-28T08:08:12;1.10;61.10
6738;DHT22;3406;49.902;8.596;2023-02-28T08:10:38;1.20;60.80
6738;DHT22;3406;49.902;8.596;2023-02-28T08:13:05;1.30;60.30
6738;DHT22;3406;49.902;8.596;2023-02-28T08:15:31;1.40;60.10
6738;DHT22;3406;49.902;8.596;2023-02-28T08:17:58;1.50;60.00
6738;DHT22;3406;49.902;8.596;2023-02-28T08:20:26;1.60;59.70
6738;DHT22;3406;49.902;8.596;2023-02-28T08:22:52;1.70;59.30
6738;DHT22;3406;49.902;8.596;2023-02-28T08:25:21;1.70;59.20
6738;DHT22;3406;49.902;8.596;2023-02-28T08:27:47;1.80;58.90
6738;DHT22;3406;49.902;8.596;2023-02-28T08:30:16;1.90;58.70
6738;DHT22;3406;49.902;8.596;2023-02-28T08:32:43;2.10;58.70
6738;DHT22;3406;49.902;8.596;2023-02-28T08:35:10;2.10;58.30
6738;DHT22;3406;49.902;8.596;2023-02-28T08:37:36;2.20;58.10
6738;DHT22;3406;49.902;8.596;2023-02-28T08:40:04;2.30;57.80
6738;DHT22;3406;49.902;8.596;2023-02-28T08:42:33;2.40;57.60
6738;DHT22;3406;49.902;8.596;2023-02-28T08:44:59;2.50;57.30
6738;DHT22;3406;49.902;8.596;2023-02-28T08:47:26;2.50;56.60
6738;DHT22;3406;49.902;8.596;2023-02-28T08:49:53;2.50;56.20
6738;DHT22;3406;49.902;8.596;2023-02-28T08:52:19;2.50;56.00
6738;DHT22;3406;49.902;8.596;2023-02-28T08:54:46;2.60;55.90
6738;DHT22;3406;49.902;8.596;2023-02-28T08:57:13;2.60;55.70
6738;DHT22;3406;49.902;8.596;2023-02-28T08:59:41;2.60;55.50
6738;DHT22;3406;49.902;8.596;2023-02-28T09:02:09;2.70;55.40
6738;DHT22;3406;49.902;8.596;2023-02-28T09:04:35;2.70;55.30
6738;DHT22;3406;49.902;8.596;2023-02-28T09:07:02;2.70;55.00
6738;DHT22;3406;49.902;8.596;2023-02-28T09:09:29;2.70;54.70
6738;DHT22;3406;49.902;8.596;2023-02-28T09:11:55;2.70;54.70
6738;DHT22;3406;49.902;8.596;2023-02-28T09:14:22;2.80;54.80
6738;DHT22;3406;49.902;8.596;2023-02-28T09:16:50;2.80;54.60
6738;DHT22;3406;49.902;8.596;2023-02-28T09:19:17;2.90;54.60
6738;DHT22;3406;49.902;8.596;2023-02-28T09:21:43;3.00;54.50
6738;DHT22;3406;49.902;8.596;2023-02-28T09:24:10;3.00;54.50
6738;DHT22;3406;49.902;8.596;2023-02-28T09:26:39;3.20;54.50
6738;DHT22;3406;49.902;8.596;2023-02-28T09:29:06;3.20;54.30
6738;DHT22;3406;49.902;8.596;2023-02-28T09:31:33;3.30;54.10
6738;DHT22;3406;49.902;8.596;2023-02-28T09:34:01;3.40;53.70
6738;DHT22;3406;49.902;8.596;2023-02-28T09:36:27;3.40;53.40
6738;DHT22;3406;49.902;8.596;2023-02-28T09:38:55;3.40;52.70
6738;DHT22;3406;49.902;8.596;2023-02-28T09:41:23;3.50;52.50
6738;DHT22;3406;49.902;8.596;2023-02-28T09:43:55;3.50;52.10
6738;DHT22;3406;49.902;8.596;2023-02-28T09:46:32;3.50;51.50
6738;DHT22;3406;49.902;8.596;2023-02-28T09:49:03;3.60;51.40
6738;DHT22;3406;49.902;8.596;2023-02-28T09:51:40;3.60;51.30
6738;DHT22;3406;49.902;8.596;2023-02-28T09:54:14;3.70;51.10
6738;DHT22;3406;49.902;8.596;2023-02-28T09:56:45;3.70;50.70
6738;DHT22;3406;49.902;8.596;2023-02-28T09:59:23;3.70;50.60
6738;DHT22;3406;49.902;8.596;2023-02-28T10:01:57;3.80;50.40
6738;DHT22;3406;49.902;8.596;2023-02-28T10:04:40;3.80;50.10
6738;DHT22;3406;49.902;8.596;2023-02-28T10:07:17;3.80;49.90
6738;DHT22;3406;49.902;8.596;2023-02-28T10:09:47;3.90;49.80
6738;DHT22;3406;49.902;8.596;2023-02-28T10:12:17;4.00;49.70
6738;DHT22;3406;49.902;8.596;2023-02-28T10:14:48;4.00;49.70
6738;DHT22;3406;49.902;8.596;2023-02-28T10:17:19;4.10;49.40
6738;DHT22;3406;49.902;8.596;2023-02-28T10:19:56;4.10;49.20
6738;DHT22;3406;49.902;8.596;2023-02-28T10:22:28;4.10;49.60
6738;DHT22;3406;49.902;8.596;2023-02-28T10:24:58;4.20;49.10
6738;DHT22;3406;49.902;8.596;2023-02-28T10:27:30;4.20;49.10
6738;DHT22;3406;49.902;8.596;2023-02-28T10:29:59;4.40;49.10
6738;DHT22;3406;49.902;8.596;2023-02-28T10:32:28;4.40;48.90
6738;DHT22;3406;49.902;8.596;2023-02-28T10:35:00;4.50;48.80
6738;DHT22;3406;49.902;8.596;2023-02-28T10:37:27;4.60;48.60
6738;DHT22;3406;49.902;8.596;2023-02-28T10:39:54;4.60;48.00
6738;DHT22;3406;49.902;8.596;2023-02-28T10:42:24;4.80;48.10
6738;DHT22;3406;49.902;8.596;2023-02-28T10:45:06;4.90;48.00
6738;DHT22;3406;49.902;8.596;2023-02-28T10:47:42;5.10;47.60
6738;DHT22;3406;49.902;8.596;2023-02-28T10:50:30;5.20;47.20
6738;DHT22;3406;49.902;8.596;2023-02-28T10:53:12;5.30;46.90
6738;DHT22;3406;49.902;8.596;2023-02-28T10:55:40;5.30;46.60
6738;DHT22;3406;49.902;8.596;2023-02-28T10:58:21;5.30;46.40
6738;DHT22;3406;49.902;8.596;2023-02-28T11:00:48;5.30;46.10
6738;DHT22;3406;49.902;8.596;2023-02-28T11:03:25;5.30;46.00
6738;DHT22;3406;49.902;8.596;2023-02-28T11:05:53;5.30;45.80
6738;DHT22;3406;49.902;8.596;2023-02-28T11:08:20;5.30;45.70
6738;DHT22;3406;49.902;8.596;2023-02-28T11:10:48;5.40;45.50
6738;DHT22;3406;49.902;8.596;2023-02-28T11:13:17;5.40;45.40
6738;DHT22;3406;49.902;8.596;2023-02-28T11:15:51;5.50;45.40
6738;DHT22;3406;49.902;8.596;2023-02-28T11:18:23;5.50;45.00
6738;DHT22;3406;49.902;8.596;2023-02-28T11:20:53;5.40;44.70
6738;DHT22;3406;49.902;8.596;2023-02-28T11:23:22;5.40;45.00
6738;DHT22;3406;49.902;8.596;2023-02-28T11:25:52;5.50;45.00
6738;DHT22;3406;49.902;8.596;2023-02-28T11:28:27;5.60;44.70
6738;DHT22;3406;49.902;8.596;2023-02-28T11:31:08;5.70;44.70
6738;DHT22;3406;49.902;8.596;2023-02-28T11:33:42;5.70;44.50
6738;DHT22;3406;49.902;8.596;2023-02-28T11:36:13;5.70;44.20
6738;DHT22;3406;49.902;8.596;2023-02-28T11:38:40;5.70;44.20
6738;DHT22;3406;49.902;8.596;2023-02-28T11:41:22;5.60;43.80
6738;DHT22;3406;49.902;8.596;2023-02-28T11:44:03;5.40;44.10
6738;DHT22;3406;49.902;8.596;2023-02-28T11:46:39;5.20;44.40
6738;DHT22;3406;49.902;8.596;2023-02-28T11:49:18;5.20;44.80
6738;DHT22;3406;49.902;8.596;2023-02-28T11:51:53;5.20;45.10
6738;DHT22;3406;49.902;8.596;2023-02-28T11:57:35;5.30;45.20
6738;DHT22;3406;49.902;8.596;2023-02-28T12:00:12;5.40;45.30
6738;DHT22;3406;49.902;8.596;2023-02-28T12:02:54;5.40;45.20
6738;DHT22;3406;49.902;8.596;2023-02-28T12:05:30;5.50;44.70
6738;DHT22;3406;49.902;8.596;2023-02-28T12:08:06;5.40;44.40
6738;DHT22;3406;49.902;8.596;2023-02-28T12:10:42;5.40;44.40
6738;DHT22;3406;49.902;8.596;2023-02-28T12:13:18;5.30;44.10
6738;DHT22;3406;49.902;8.596;2023-02-28T12:18:59;5.20;44.30
6738;DHT22;3406;49.902;8.596;2023-02-28T12:21:34;5.30;44.40
6738;DHT22;3406;49.902;8.596;2023-02-28T12:24:28;5.40;44.30
6738;DHT22;3406;49.902;8.596;2023-02-28T12:27:02;5.60;44.30
6738;DHT22;3406;49.902;8.596;2023-02-28T12:29:32;5.70;44.10
6738;DHT22;3406;49.902;8.596;2023-02-28T12:32:04;5.80;44.00
6738;DHT22;3406;49.902;8.596;2023-02-28T12:34:34;5.90;44.00
6738;DHT22;3406;49.902;8.596;2023-02-28T12:37:07;6.00;43.90
6738;DHT22;3406;49.902;8.596;2023-02-28T12:39:40;6.00;43.60
6738;DHT22;3406;49.902;8.596;2023-02-28T12:42:11;6.00;43.50
6738;DHT22;3406;49.902;8.596;2023-02-28T12:44:44;5.90;43.40
6738;DHT22;3406;49.902;8.596;2023-02-28T12:47:15;5.90;43.60
6738;DHT22;3406;49.902;8.596;2023-02-28T12:49:46;5.90;43.50
6738;DHT22;3406;49.902;8.596;2023-02-28T12:52:19;5.90;43.60
6738;DHT22;3406;49.902;8.596;2023-02-28T12:54:52;6.00;43.70
6738;DHT22;3406;49.902;8.596;2023-02-28T12:57:25;6.00;43.70
6738;DHT22;3406;49.902;8.596;2023-02-28T12:59:57;6.00;43.60
6738;DHT22;3406;49.902;8.596;2023-02-28T13:02:38;6.10;43.70
6738;DHT22;3406;49.902;8.596;2023-02-28T13:05:29;6.10;43.40
6738;DHT22;3406;49.902;8.596;2023-02-28T13:08:11;6.10;43.40
6738;DHT22;3406;49.902;8.596;2023-02-28T13:10:47;6.10;43.30
6738;DHT22;3406;49.902;8.596;2023-02-28T13:13:17;6.10;43.10
6738;DHT22;3406;49.902;8.596;2023-02-28T13:15:58;6.10;43.10
6738;DHT22;3406;49.902;8.596;2023-02-28T13:18:31;6.10;43.20
6738;DHT22;3406;49.902;8.596;2023-02-28T13:20:58;6.00;43.10
6738;DHT22;3406;49.902;8.596;2023-02-28T13:23:41;6.00;43.10
6738;DHT22;3406;49.902;8.596;2023-02-28T13:29:35;6.00;43.20
6738;DHT22;3406;49.902;8.596;2023-02-28T13:32:31;6.00;43.10
6738;DHT22;3406;49.902;8.596;2023-02-28T13:38:25;6.10;43.30
6738;DHT22;3406;49.902;8.596;2023-02-28T13:44:04;6.10;43.20
6738;DHT22;3406;49.902;8.596;2023-02-28T13:46:35;6.20;43.30
6738;DHT22;3406;49.902;8.596;2023-02-28T13:49:25;6.20;43.20
6738;DHT22;3406;49.902;8.596;2023-02-28T13:51:56;6.20;43.10
6738;DHT22;3406;49.902;8.596;2023-02-28T13:54:39;6.30;43.20
6738;DHT22;3406;49.902;8.596;2023-02-28T13:57:17;6.40;43.20
6738;DHT22;3406;49.902;8.596;2023-02-28T13:59:59;6.40;43.00
6738;DHT22;3406;49.902;8.596;2023-02-28T14:03:01;6.40;43.00
6738;DHT22;3406;49.902;8.596;2023-02-28T14:05:32;6.40;43.00
6738;DHT22;3406;49.902;8.596;2023-02-28T14:08:05;6.40;42.70
6738;DHT22;3406;49.902;8.596;2023-02-28T14:10:36;6.40;42.80
6738;DHT22;3406;49.902;8.596;2023-02-28T14:15:57;6.50;42.90
6738;DHT22;3406;49.902;8.596;2023-02-28T14:18:28;6.50;42.90
6738;DHT22;3406;49.902;8.596;2023-02-28T14:21:02;6.60;42.90
6738;DHT22;3406;49.902;8.596;2023-02-28T14:26:32;6.60;42.90
6738;DHT22;3406;49.902;8.596;2023-02-28T14:29:16;6.60;42.90
6738;DHT22;3406;49.902;8.596;2023-02-28T14:31:51;6.50;42.90
6738;DHT22;3406;49.902;8.596;2023-02-28T14:34:36;6.50;42.90
6738;DHT22;3406;49.902;8.596;2023-02-28T14:37:04;6.50;43.00
6738;DHT22;3406;49.902;8.596;2023-02-28T14:39:33;6.60;43.10
6738;DHT22;3406;49.902;8.596;2023-02-28T14:42:02;6.50;42.90
6738;DHT22;3406;49.902;8.596;2023-02-28T14:44:30;6.50;42.90
6738;DHT22;3406;49.902;8.596;2023-02-28T14:46:59;6.50;42.90
6738;DHT22;3406;49.902;8.596;2023-02-28T14:49:34;6.50;42.90
6738;DHT22;3406;49.902;8.596;2023-02-28T14:52:04;6.50;42.90
6738;DHT22;3406;49.902;8.596;2023-02-28T14:54:35;6.50;43.00
6738;DHT22;3406;49.902;8.596;2023-02-28T14:57:02;6.50;42.90
6738;DHT22;3406;49.902;8.596;2023-02-28T14:59:31;6.50;42.90
6738;DHT22;3406;49.902;8.596;2023-02-28T15:02:23;6.50;42.70
6738;DHT22;3406;49.902;8.596;2023-02-28T15:04:56;6.50;42.60
6738;DHT22;3406;49.902;8.596;2023-02-28T15:07:24;6.50;42.40
6738;DHT22;3406;49.902;8.596;2023-02-28T15:10:25;6.50;42.40
6738;DHT22;3406;49.902;8.596;2023-02-28T15:12:54;6.60;42.60
6738;DHT22;3406;49.902;8.596;2023-02-28T15:15:22;6.70;42.70
6738;DHT22;3406;49.902;8.596;2023-02-28T15:17:54;6.70;42.70
6738;DHT22;3406;49.902;8.596;2023-02-28T15:20:24;6.80;42.70
6738;DHT22;3406;49.902;8.596;2023-02-28T15:22:55;6.80;42.80
6738;DHT22;3406;49.902;8.596;2023-02-28T15:25:22;6.80;42.90
6738;DHT22;3406;49.902;8.596;2023-02-28T15:27:52;6.90;43.00
6738;DHT22;3406;49.902;8.596;2023-02-28T15:30:21;6.90;42.90
6738;DHT22;3406;49.902;8.596;2023-02-28T15:33:18;6.90;42.90
6738;DHT22;3406;49.902;8.596;2023-02-28T15:35:47;6.90;42.90
6738;DHT22;3406;49.902;8.596;2023-02-28T15:38:17;6.90;42.90
6738;DHT22;3406;49.902;8.596;2023-02-28T15:40:46;6.90;42.90
6738;DHT22;3406;49.902;8.596;2023-02-28T15:43:24;6.90;42.90
6738;DHT22;3406;49.902;8.596;2023-02-28T15:45:54;6.90;42.90
6738;DHT22;3406;49.902;8.596;2023-02-28T15:48:23;7.00;43.00
6738;DHT22;3406;49.902;8.596;2023-02-28T15:50:54;6.90;42.50
6738;DHT22;3406;49.902;8.596;2023-02-28T15:53:24;6.80;42.60
6738;DHT22;3406;49.902;8.596;2023-02-28T15:56:01;6.80;42.80
6738;DHT22;3406;49.902;8.596;2023-02-28T15:58:28;6.80;43.00
6738;DHT22;3406;49.902;8.596;2023-02-28T16:01:08;6.80;43.00
6738;DHT22;3406;49.902;8.596;2023-02-28T16:03:44;6.80;43.10
6738;DHT22;3406;49.902;8.596;2023-02-28T16:06:33;6.80;43.20
6738;DHT22;3406;49.902;8.596;2023-02-28T16:09:01;6.90;43.20
6738;DHT22;3406;49.902;8.596;2023-02-28T16:11:28;6.80;43.20
6738;DHT22;3406;49.902;8.596;2023-02-28T16:13:56;6.70;43.30
6738;DHT22;3406;49.902;8.596;2023-02-28T16:16:24;6.70;43.40
6738;DHT22;3406;49.902;8.596;2023-02-28T16:18:52;6.60;43.60
6738;DHT22;3406;49.902;8.596;2023-02-28T16:21:19;6.50;43.60
6738;DHT22;3406;49.902;8.596;2023-02-28T16:23:47;6.40;44.20
6738;DHT22;3406;49.902;8.596;2023-02-28T16:26:19;6.40;43.80
6738;DHT22;3406;49.902;8.596;2023-02-28T16:28:47;6.30;44.00
6738;DHT22;3406;49.902;8.596;2023-02-28T16:31:14;6.20;44.00
6738;DHT22;3406;49.902;8.596;2023-02-28T16:33:42;6.20;44.10
6738;DHT22;3406;49.902;8.596;2023-02-28T16:36:12;6.20;44.20
6738;DHT22;3406;49.902;8.596;2023-02-28T16:38:39;6.10;44.30
6738;DHT22;3406;49.902;8.596;2023-02-28T16:41:11;6.10;44.40
6738;DHT22;3406;49.902;8.596;2023-02-28T16:43:41;6.10;44.50
6738;DHT22;3406;49.902;8.596;2023-02-28T16:46:11;6.00;44.50
6738;DHT22;3406;49.902;8.596;2023-02-28T16:48:38;5.90;44.60
6738;DHT22;3406;49.902;8.596;2023-02-28T16:51:06;5.90;44.80
6738;DHT22;3406;49.902;8.596;2023-02-28T16:53:32;5.80;44.80
6738;DHT22;3406;49.902;8.596;2023-02-28T16:56:00;5.80;45.00
6738;DHT22;3406;49.902;8.596;2023-02-28T16:58:29;5.70;45.60
6738;DHT22;3406;49.902;8.596;2023-02-28T17:00:56;5.70;45.20
6738;DHT22;3406;49.902;8.596;2023-02-28T17:03:24;5.60;45.30